Time;durP1;ratioP1;P1;durP2;ratioP2;P2;SDS_P1;SDS_P2;PMS_P1;PMS_P2;Temp;Humidity;BMP_temperature;BMP_pressure;BME280_temperature;BME280_humidity;BME280_pressure;Samples;Min_cycle;Max_cycle;Signal;HPM_P1;HPM_P2
2022/04/22 00:02:18;;;;;;;;;4.00;3.50;;;;;14.21;45.91;99570.16;5090161;27;45517;-77
2022/04/22 00:04:43;;;;;;;;;4.00;2.50;;;;;14.23;45.79;99564.78;5062560;28;45436;-77
2022/04/22 00:07:08;;;;;;;;;5.00;3.50;;;;;14.19;45.87;99571.16;5067246;27;47124;-78
2022/04/22 00:09:34;;;;;;;;;7.50;4.50;;;;;14.17;46.09;99570.41;5083714;27;45456;-77
2022/04/22 00:11:59;;;;;;;;;5.00;2.00;;;;;14.16;46.11;99568.66;5102242;27;45467;-77
2022/04/22 00:14:24;;;;;;;;;4.00;1.50;;;;;14.12;46.00;99567.09;5068709;28;45485;-77
2022/04/22 00:16:50;;;;;;;;;2.50;2.50;;;;;14.11;46.15;99578.69;5075374;27;46010;-77
2022/04/22 00:19:16;;;;;;;;;2.00;2.00;;;;;14.07;46.23;99569.97;5079464;27;45415;-77
2022/04/22 00:21:42;;;;;;;;;2.00;2.00;;;;;14.05;46.22;99566.56;5076125;28;45533;-78
2022/04/22 00:24:07;;;;;;;;;4.00;2.00;;;;;14.03;46.77;99566.63;5074501;27;45548;-77
2022/04/22 00:26:33;;;;;;;;;2.00;2.00;;;;;13.97;46.78;99553.66;5075617;28;46131;-77
2022/04/22 00:28:58;;;;;;;;;4.00;4.00;;;;;13.98;47.10;99560.69;5094433;27;45464;-77
2022/04/22 00:31:24;;;;;;;;;2.00;2.00;;;;;13.92;46.81;99560.13;5096234;27;45429;-77
2022/04/22 00:33:49;;;;;;;;;2.00;2.00;;;;;13.87;46.91;99563.03;5096226;27;45531;-77
2022/04/22 00:36:14;;;;;;;;;2.00;1.75;;;;;13.85;47.02;99554.28;5088930;27;46216;-77
2022/04/22 00:38:40;;;;;;;;;4.25;4.25;;;;;13.79;46.76;99555.44;5058548;28;45298;-76
2022/04/22 00:41:05;;;;;;;;;4.00;4.00;;;;;13.77;47.23;99559.09;5078887;28;45387;-77
2022/04/22 00:43:44;;;;;;;;;6.50;3.50;;;;;13.71;47.79;99557.63;5061043;28;45506;-77
2022/04/22 00:46:10;;;;;;;;;4.50;4.50;;;;;13.66;47.45;99544.56;5074850;27;47173;-78
2022/04/22 00:48:36;;;;;;;;;5.50;4.50;;;;;13.65;47.39;99560.56;5075811;28;45444;-77
2022/04/22 00:51:04;;;;;;;;;1.00;1.00;;;;;13.61;47.40;99556.34;5076447;27;45433;-78
2022/04/22 00:53:30;;;;;;;;;4.00;4.00;;;;;13.64;47.66;99556.19;5095606;27;45629;-77
2022/04/22 00:55:58;;;;;;;;;1.75;1.75;;;;;13.62;47.47;99553.59;5090926;27;46053;-77
2022/04/22 00:58:23;;;;;;;;;2.00;2.00;;;;;13.56;47.96;99548.59;5074481;27;45425;-76
2022/04/22 01:00:49;;;;;;;;;1.75;1.75;;;;;13.53;47.25;99551.41;5075275;28;45332;-77
2022/04/22 01:03:14;;;;;;;;;7.25;5.00;;;;;13.48;47.84;99543.66;5075459;28;45508;-77
2022/04/22 01:11:08;;;;;;;;;6.50;4.25;;;;;13.46;47.65;99547.31;5077289;27;45539;-77
2022/04/22 01:13:33;;;;;;;;;5.50;4.00;;;;;13.44;48.20;99543.88;5080419;27;45540;-78
2022/04/22 01:15:59;;;;;;;;;4.00;4.00;;;;;13.39;48.22;99541.47;5091114;27;45372;-77
2022/04/22 01:18:24;;;;;;;;;2.50;2.00;;;;;13.36;48.34;99532.75;5089694;27;45463;-77
2022/04/22 01:20:49;;;;;;;;;5.00;5.00;;;;;13.37;48.40;99538.00;5095128;27;45971;-78
2022/04/22 01:23:15;;;;;;;;;4.25;4.25;;;;;13.31;48.00;99539.09;5095961;27;45458;-77
2022/04/22 01:25:41;;;;;;;;;4.00;2.00;;;;;13.33;48.59;99536.41;5076113;27;46687;-77
2022/04/22 01:28:08;;;;;;;;;2.50;2.00;;;;;13.29;48.74;99530.38;5076374;27;45497;-77
2022/04/22 01:30:33;;;;;;;;;4.50;4.00;;;;;13.28;48.08;99531.28;5095125;27;45386;-77
2022/04/22 01:32:58;;;;;;;;;4.00;4.00;;;;;13.28;48.28;99531.28;5076827;27;45455;-78
2022/04/22 01:35:25;;;;;;;;;5.50;4.00;;;;;13.26;48.36;99525.22;5095214;27;45514;-77
2022/04/22 01:37:51;;;;;;;;;3.00;3.00;;;;;13.24;48.33;99521.78;5094721;27;45438;-81
2022/04/22 01:40:17;;;;;;;;;4.00;4.00;;;;;13.21;48.74;99511.31;5058994;28;45321;-81
2022/04/22 01:42:43;;;;;;;;;2.00;2.00;;;;;13.23;48.51;99516.56;5083301;27;45382;-80
2022/04/22 01:45:12;;;;;;;;;2.00;1.00;;;;;13.19;48.54;99513.16;5079726;28;45371;-81
2022/04/22 01:47:37;;;;;;;;;2.00;1.50;;;;;13.21;48.74;99513.09;5081137;28;45406;-79
2022/04/22 01:50:03;;;;;;;;;4.25;4.25;;;;;13.21;48.25;99508.66;5077470;27;45434;-81
2022/04/22 01:52:29;;;;;;;;;3.50;2.00;;;;;13.19;48.66;99513.16;5078629;28;45562;-81
2022/04/22 01:54:56;;;;;;;;;2.00;2.00;;;;;13.17;48.89;99512.38;5088643;27;46108;-81
2022/04/22 01:57:21;;;;;;;;;7.75;4.50;;;;;13.16;49.25;99510.66;5060897;27;45537;-81
2022/04/22 01:59:48;;;;;;;;;4.25;4.00;;;;;13.10;50.03;99519.78;5061582;28;45358;-81
2022/04/22 02:02:14;;;;;;;;;5.00;2.00;;;;;13.05;49.71;99505.00;5061232;28;45531;-81
2022/04/22 02:04:40;;;;;;;;;4.75;4.00;;;;;13.06;49.96;99507.59;5079885;28;45985;-82
2022/04/22 02:07:06;;;;;;;;;5.00;4.00;;;;;13.02;50.46;99502.50;5091168;27;45331;-80
2022/04/22 02:09:31;;;;;;;;;4.50;4.00;;;;;12.98;50.24;99499.13;5099353;27;45397;-81
2022/04/22 02:11:57;;;;;;;;;5.50;5.50;;;;;12.96;50.32;99501.00;5084525;27;45406;-81
2022/04/22 02:14:23;;;;;;;;;5.00;4.00;;;;;12.96;50.39;99499.19;5082130;28;45440;-81
2022/04/22 02:16:52;;;;;;;;;5.50;4.25;;;;;12.85;50.82;99488.25;5080328;28;45399;-82
2022/04/22 02:19:18;;;;;;;;;6.00;4.00;;;;;12.90;51.05;99502.13;5095861;27;45430;-76
2022/04/22 02:21:44;;;;;;;;;4.25;4.00;;;;;12.89;51.20;99500.44;5098193;27;45601;-77
2022/04/22 02:24:10;;;;;;;;;4.00;4.00;;;;;12.87;50.83;99496.13;5097432;27;45858;-77
2022/04/22 02:29:20;;;;;;;;;7.00;4.25;;;;;12.79;51.42;99502.63;5077323;28;45458;-77
2022/04/22 02:31:46;;;;;;;;;4.00;4.00;;;;;12.75;51.54;99498.41;5084975;27;45673;-77
2022/04/22 02:34:11;;;;;;;;;5.00;4.00;;;;;12.68;51.46;99493.44;5069460;27;46963;-77
2022/04/22 02:36:37;;;;;;;;;3.50;3.50;;;;;12.59;51.72;99482.34;5077658;28;45547;-79
2022/04/22 02:39:02;;;;;;;;;5.00;4.00;;;;;12.62;51.78;99489.31;5077379;28;45363;-77
2022/04/22 02:46:55;;;;;;;;;4.50;4.50;;;;;12.54;51.98;99484.34;5083482;27;45531;-77
2022/04/22 02:49:20;;;;;;;;;3.00;3.00;;;;;12.51;52.01;99489.78;5097589;27;45885;-77
2022/04/22 02:51:46;;;;;;;;;6.75;5.75;;;;;12.49;52.16;99483.69;5097381;27;45378;-78
2022/04/22 02:54:11;;;;;;;;;2.75;2.75;;;;;12.47;52.22;99497.94;5081195;27;46880;-77
2022/04/22 02:56:38;;;;;;;;;6.50;5.25;;;;;12.39;52.63;99485.00;5089746;27;45426;-77
2022/04/22 02:59:04;;;;;;;;;4.00;3.50;;;;;12.42;52.38;99491.06;5097464;27;45406;-76
2022/04/22 03:01:30;;;;;;;;;5.75;4.25;;;;;12.36;52.63;99485.16;5093857;27;45830;-77
2022/04/22 03:03:55;;;;;;;;;2.50;2.50;;;;;12.33;52.54;99480.88;5094390;27;46176;-77
2022/04/22 03:06:20;;;;;;;;;3.25;3.25;;;;;12.32;52.51;99478.28;5097158;27;45509;-78
2022/04/22 03:08:46;;;;;;;;;4.00;4.00;;;;;12.29;52.91;99481.94;5097084;27;45804;-76
2022/04/22 03:11:20;;;;;;;;;1.75;1.75;;;;;12.26;52.88;99474.13;5079776;28;45446;-77
2022/04/22 03:13:45;;;;;;;;;3.00;3.00;;;;;12.23;52.94;99476.91;5079853;27;45344;-77
2022/04/22 03:16:11;;;;;;;;;5.50;4.25;;;;;12.16;52.85;99473.69;5093060;27;45306;-76
2022/04/22 03:18:36;;;;;;;;;5.75;5.25;;;;;12.16;52.80;99473.69;5097131;27;45390;-76
2022/04/22 03:21:01;;;;;;;;;4.50;4.50;;;;;12.14;52.81;99480.81;5097115;27;45773;-77
2022/04/22 03:23:27;;;;;;;;;7.00;4.75;;;;;12.13;53.22;99479.13;5086017;27;45454;-78
2022/04/22 03:25:54;;;;;;;;;3.50;2.75;;;;;12.04;53.10;99474.19;5076786;28;45379;-78
2022/04/22 03:28:20;;;;;;;;;5.50;5.50;;;;;12.07;53.60;99474.06;5091305;27;45569;-77
2022/04/22 03:30:46;;;;;;;;;5.50;3.25;;;;;12.02;53.59;99468.09;5095932;27;45395;-78
2022/04/22 03:33:11;;;;;;;;;4.50;4.50;;;;;12.03;53.16;99473.34;5085528;27;45862;-78
2022/04/22 03:35:36;;;;;;;;;5.00;4.00;;;;;12.01;53.53;99471.66;5076090;28;45412;-77
2022/04/22 03:38:02;;;;;;;;;4.00;3.75;;;;;12.00;53.43;99477.91;5076489;28;45428;-77
2022/04/22 03:40:27;;;;;;;;;3.25;3.25;;;;;11.99;53.60;99470.88;5076955;27;45462;-77
2022/04/22 03:42:53;;;;;;;;;6.50;5.00;;;;;11.97;53.19;99473.59;5080973;27;45339;-76
2022/04/22 03:45:20;;;;;;;;;4.50;4.50;;;;;11.94;53.49;99467.59;5078237;28;45569;-77
2022/04/22 03:47:46;;;;;;;;;4.50;4.00;;;;;11.88;53.69;99469.53;5076139;27;45426;-77
2022/04/22 03:50:13;;;;;;;;;2.00;2.00;;;;;11.88;53.47;99468.69;5075790;28;45576;-77
2022/04/22 03:52:38;;;;;;;;;5.00;5.00;;;;;11.85;53.46;99467.00;5082836;27;47394;-77
2022/04/22 03:55:04;;;;;;;;;5.00;5.00;;;;;11.85;53.40;99468.81;5091266;27;45328;-77
2022/04/22 04:00:13;;;;;;;;;6.75;4.25;;;;;11.84;53.47;99469.72;5075299;27;45431;-76
2022/04/22 04:02:40;;;;;;;;;8.00;5.00;;;;;11.78;53.84;99464.69;5075895;28;45554;-77
2022/04/22 04:05:06;;;;;;;;;4.75;4.75;;;;;11.77;53.47;99468.25;5077902;27;45402;-77
2022/04/22 04:07:31;;;;;;;;;8.25;7.00;;;;;11.70;53.78;99457.06;5096307;27;45345;-77
2022/04/22 04:18:09;;;;;;;;;7.00;2.00;;;;;11.65;54.24;99461.72;5076306;28;45655;-78
2022/04/22 04:23:18;;;;;;;;;8.00;7.00;;;;;11.56;54.29;99455.00;5077531;27;45395;-77
2022/04/22 04:25:45;;;;;;;;;4.75;4.75;;;;;11.55;54.58;99456.81;5095865;27;45279;-76
2022/04/22 04:28:11;;;;;;;;;10.50;7.50;;;;;11.54;54.55;99460.38;5083166;27;45347;-77
2022/04/22 04:30:38;;;;;;;;;9.75;6.75;;;;;11.49;54.76;99454.44;5074983;27;45560;-78
2022/04/22 04:33:04;;;;;;;;;4.00;4.00;;;;;11.52;54.60;99451.66;5075623;28;46043;-77
2022/04/22 04:35:30;;;;;;;;;4.00;4.00;;;;;11.48;54.70;99459.78;5075669;28;45522;-77
2022/04/22 04:37:55;;;;;;;;;4.50;4.50;;;;;11.43;55.13;99454.66;5075984;28;45202;-77
2022/04/22 04:40:21;;;;;;;;;4.50;4.50;;;;;11.41;54.85;99458.31;5076164;27;45465;-77
2022/04/22 04:42:46;;;;;;;;;5.50;5.00;;;;;11.39;55.05;99445.13;5081235;27;46214;-77
2022/04/22 04:45:12;;;;;;;;;4.50;4.50;;;;;11.45;55.19;99457.22;5076905;27;45591;-78
2022/04/22 04:47:41;;;;;;;;;7.75;6.75;;;;;11.41;54.97;99456.50;5074978;27;45513;-77
2022/04/22 04:50:07;;;;;;;;;7.00;5.00;;;;;11.38;55.45;99446.06;5075198;28;45527;-77
2022/04/22 04:52:34;;;;;;;;;4.00;4.00;;;;;11.41;55.06;99453.84;5070799;27;47096;-77
2022/04/22 04:55:00;;;;;;;;;4.75;3.50;;;;;11.45;55.38;99444.00;5095108;27;45512;-77
2022/04/22 04:57:26;;;;;;;;;5.00;4.00;;;;;11.48;55.08;99449.19;5096424;27;45530;-77
2022/04/22 04:59:51;;;;;;;;;7.50;5.25;;;;;11.64;54.84;99452.03;5081151;27;45504;-77
2022/04/22 05:02:16;;;;;;;;;4.75;3.50;;;;;11.75;54.51;99447.16;5080381;27;45347;-77
2022/04/22 05:04:42;;;;;;;;;4.50;4.00;;;;;11.86;54.09;99423.72;5095711;27;45406;-78
2022/04/22 05:07:07;;;;;;;;;7.50;6.25;;;;;12.18;53.70;99424.13;5095379;27;45380;-77
2022/04/22 05:09:32;;;;;;;;;8.00;7.50;;;;;12.42;53.67;99434.56;5095441;27;45386;-76
2022/04/22 05:11:58;;;;;;;;;5.25;5.25;;;;;12.64;52.36;99436.22;5073700;28;46473;-77
2022/04/22 05:14:25;;;;;;;;;5.75;4.00;;;;;12.94;51.80;99432.09;5080447;27;45455;-78
2022/04/22 05:16:50;;;;;;;;;7.50;5.50;;;;;13.27;51.28;99426.09;5077944;28;45342;-77
2022/04/22 05:19:15;;;;;;;;;2.00;2.00;;;;;13.57;50.20;99428.19;5074908;28;45369;-78
2022/04/22 05:21:41;;;;;;;;;4.25;4.25;;;;;13.82;50.00;99430.47;5080894;27;45504;-82
2022/04/22 05:24:07;;;;;;;;;2.00;2.00;;;;;14.20;48.99;99426.75;5096507;27;45507;-82
2022/04/22 05:26:32;;;;;;;;;4.75;4.75;;;;;14.57;48.02;99427.41;5096644;27;45503;-82
2022/04/22 05:28:58;;;;;;;;;7.50;5.50;;;;;14.74;46.82;99414.09;5087842;27;45482;-81
2022/04/22 05:34:06;;;;;;;;;8.00;7.25;;;;;15.47;45.87;99425.94;5079713;28;45420;-81
2022/04/22 05:36:32;;;;;;;;;5.00;4.00;;;;;15.73;44.75;99427.06;5080280;28;45497;-81
2022/04/22 05:38:57;;;;;;;;;9.25;6.00;;;;;15.91;44.71;99413.63;5080280;27;45477;-80
2022/04/22 05:41:22;;;;;;;;;7.00;5.00;;;;;16.44;43.50;99427.25;5077542;27;48282;-81
2022/04/22 05:43:48;;;;;;;;;10.25;7.75;;;;;16.66;43.15;99424.13;5108492;27;45339;-81
2022/04/22 05:46:14;;;;;;;;;9.25;8.25;;;;;17.18;42.11;99418.09;5102508;27;45365;-82
2022/04/22 05:48:39;;;;;;;;;8.00;5.00;;;;;17.58;40.98;99418.13;5095246;27;45853;-82
2022/04/22 05:51:05;;;;;;;;;5.50;5.50;;;;;17.76;40.77;99409.81;5079744;27;47196;-81
2022/04/22 05:53:30;;;;;;;;;7.50;7.00;;;;;17.89;39.94;99424.09;5098462;27;45644;-82
2022/04/22 05:55:57;;;;;;;;;7.25;7.25;;;;;17.97;40.58;99426.22;5069042;27;45350;-81
2022/04/22 05:58:22;;;;;;;;;4.00;4.00;;;;;18.35;39.08;99425.38;5078524;28;45375;-81
2022/04/22 06:00:48;;;;;;;;;10.00;8.00;;;;;18.58;38.77;99415.72;5078462;28;45974;-81
2022/04/22 06:03:13;;;;;;;;;6.50;6.25;;;;;19.16;38.19;99436.56;5092843;27;45461;-81
2022/04/22 06:05:38;;;;;;;;;7.00;7.00;;;;;19.35;38.15;99431.56;5099635;27;45675;-82
2022/04/22 06:10:52;;;;;;;;;5.75;5.00;;;;;19.63;36.88;99439.34;5091501;27;45851;-81
2022/04/22 06:13:17;;;;;;;;;11.25;9.00;;;;;19.78;36.45;99432.00;5085234;27;45359;-81
2022/04/22 06:15:43;;;;;;;;;9.00;9.00;;;;;19.78;36.58;99434.69;5081030;27;45482;-80
2022/04/22 06:18:09;;;;;;;;;6.00;5.00;;;;;19.95;36.33;99425.34;5080396;27;45536;-78
2022/04/22 06:20:35;;;;;;;;;0.25;0.00;;;;;20.21;36.38;99423.34;5064608;27;46788;-82
2022/04/22 06:23:01;;;;;;;;;8.75;8.75;;;;;20.60;35.38;99423.81;5079664;27;45358;-79
2022/04/22 06:25:27;;;;;;;;;9.75;6.00;;;;;21.00;35.10;99417.09;5084289;27;45339;-78
2022/04/22 06:27:53;;;;;;;;;12.00;10.00;;;;;21.36;34.02;99410.50;5072834;27;45655;-78
2022/04/22 06:30:20;;;;;;;;;9.75;6.00;;;;;21.32;34.08;99419.81;5093156;27;45785;-78
2022/04/22 06:32:48;;;;;;;;;6.25;6.25;;;;;21.46;33.75;99411.44;5094075;27;45446;-79
2022/04/22 06:35:15;;;;;;;;;9.00;7.25;;;;;21.31;34.01;99410.03;5095114;27;45509;-75
2022/04/22 06:37:42;;;;;;;;;6.50;6.50;;;;;21.49;33.48;99396.91;5070557;27;45652;-76
2022/04/22 06:45:47;;;;;;;;;5.50;3.75;;;;;22.58;32.04;99413.63;5082556;28;45318;-79
2022/04/22 06:48:30;;;;;;;;;10.00;9.25;;;;;22.99;31.71;99406.38;5094352;27;45374;-78
2022/04/22 06:51:01;;;;;;;;;8.00;8.00;;;;;23.04;31.48;99397.88;5099337;27;45442;-79
2022/04/22 06:53:28;;;;;;;;;11.25;10.25;;;;;23.14;31.29;99404.16;5093594;27;45370;-79
2022/04/22 06:55:56;;;;;;;;;14.25;9.75;;;;;23.26;31.29;99406.72;5097695;27;45386;-82
2022/04/22 06:58:22;;;;;;;;;11.75;9.25;;;;;23.29;30.27;99409.13;5080792;27;46542;-81
2022/04/22 07:00:48;;;;;;;;;9.00;7.00;;;;;23.65;30.56;99409.41;5077939;28;45488;-81
2022/04/22 07:03:16;;;;;;;;;8.50;7.25;;;;;23.70;29.97;99412.53;5085036;27;45463;-77
2022/04/22 07:05:44;;;;;;;;;7.00;7.00;;;;;24.11;30.07;99405.97;5098514;27;45502;-77
2022/04/22 07:08:14;;;;;;;;;10.50;7.00;;;;;23.94;29.16;99401.31;5078626;27;45529;-81
2022/04/22 07:10:43;;;;;;;;;7.75;7.50;;;;;23.60;30.07;99413.38;5078567;27;45521;-80
2022/04/22 07:13:10;;;;;;;;;11.50;10.25;;;;;23.39;30.63;99401.91;5082888;28;45394;-80
2022/04/22 07:15:35;;;;;;;;;6.75;6.75;;;;;23.49;30.13;99402.75;5080685;27;45548;-81
2022/04/22 07:18:02;;;;;;;;;8.00;7.00;;;;;23.14;30.88;99406.84;5075337;27;45369;-80
2022/04/22 07:20:28;;;;;;;;;8.50;7.25;;;;;23.42;30.29;99398.91;5073687;28;45537;-77
2022/04/22 07:22:53;;;;;;;;;7.00;7.00;;;;;23.17;30.42;99398.50;5076113;28;45579;-77
2022/04/22 07:25:20;;;;;;;;;13.25;10.00;;;;;22.98;30.61;99403.81;5075834;27;45582;-76
2022/04/22 07:27:47;;;;;;;;;11.25;11.25;;;;;22.84;30.73;99399.66;5075465;27;45574;-76
2022/04/22 07:30:14;;;;;;;;;9.50;7.00;;;;;23.15;30.44;99405.00;5057816;27;45527;-77
2022/04/22 07:32:41;;;;;;;;;9.00;7.25;;;;;22.74;31.10;99399.63;5064112;28;45526;-78
2022/04/22 07:35:11;;;;;;;;;8.00;8.00;;;;;22.98;30.61;99403.81;5071528;27;45441;-77
2022/04/22 07:37:47;;;;;;;;;9.25;7.00;;;;;23.34;30.32;99398.78;5065372;28;45466;-76
2022/04/22 07:40:14;;;;;;;;;7.25;7.25;;;;;23.07;30.53;99411.06;5059722;28;46133;-75
2022/04/22 07:48:17;;;;;;;;;10.00;10.00;;;;;23.11;30.47;99399.06;5063625;28;45475;-77
2022/04/22 07:50:43;;;;;;;;;11.25;10.00;;;;;23.26;30.64;99401.31;5061099;28;46282;-75
2022/04/22 07:53:08;;;;;;;;;5.25;5.25;;;;;23.75;29.99;99394.09;5056352;28;45330;-77
2022/04/22 07:55:34;;;;;;;;;8.50;8.00;;;;;24.10;29.52;99385.38;5056321;28;45431;-75
2022/04/22 07:57:59;;;;;;;;;9.75;8.50;;;;;23.35;29.93;99384.31;5075899;27;45458;-76
2022/04/22 08:00:25;;;;;;;;;8.50;8.50;;;;;23.70;29.34;99391.81;5076035;27;46172;-76
2022/04/22 08:02:50;;;;;;;;;10.50;8.75;;;;;23.74;29.32;99405.84;5059385;27;45479;-75
2022/04/22 08:05:16;;;;;;;;;13.00;9.50;;;;;23.50;29.84;99388.25;5059038;28;45334;-75
2022/04/22 08:07:41;;;;;;;;;7.00;6.00;;;;;23.33;29.78;99405.16;5068691;27;45524;-78
2022/04/22 08:10:07;;;;;;;;;10.75;9.50;;;;;23.47;30.26;99403.88;5075204;28;45534;-74
2022/04/22 08:12:33;;;;;;;;;11.00;9.00;;;;;23.45;30.53;99395.94;5074533;27;45615;-76
2022/04/22 08:15:00;;;;;;;;;11.00;8.75;;;;;23.97;29.98;99400.19;5058559;28;45467;-75
2022/04/22 08:17:26;;;;;;;;;10.75;9.50;;;;;24.28;29.96;99398.13;5056314;28;45644;-74
2022/04/22 08:19:51;;;;;;;;;12.00;10.75;;;;;24.92;28.62;99384.75;5055090;28;46004;-76
2022/04/22 08:22:18;;;;;;;;;9.75;8.00;;;;;24.78;28.33;99383.41;5062757;28;45454;-76
2022/04/22 08:24:43;;;;;;;;;10.50;9.75;;;;;24.75;28.71;99387.28;5075861;28;45416;-75
2022/04/22 08:27:10;;;;;;;;;11.25;8.25;;;;;24.80;28.16;99376.00;5057343;28;45455;-75
2022/04/22 08:29:35;;;;;;;;;9.00;7.00;;;;;25.21;28.31;99362.94;5054930;28;46487;-76
2022/04/22 08:32:02;;;;;;;;;9.75;9.75;;;;;25.79;27.68;99368.84;5054134;28;45349;-76
2022/04/22 08:34:28;;;;;;;;;10.00;9.00;;;;;25.58;26.79;99363.78;5055240;28;45372;-76
2022/04/22 08:36:54;;;;;;;;;13.00;12.00;;;;;25.34;26.69;99367.97;5055244;28;45351;-75
2022/04/22 08:39:19;;;;;;;;;7.50;7.00;;;;;24.75;27.57;99356.69;5055790;28;45524;-74
2022/04/22 08:41:45;;;;;;;;;9.50;7.00;;;;;24.51;28.18;99365.34;5061426;28;45418;-75
2022/04/22 08:44:14;;;;;;;;;13.50;11.50;;;;;25.28;28.25;99366.72;5075020;28;45327;-76
2022/04/22 08:52:11;;;;;;;;;8.50;7.00;;;;;25.81;26.54;99354.16;5054959;28;45427;-76
2022/04/22 08:54:42;;;;;;;;;8.00;8.00;;;;;25.46;26.24;99350.53;5054426;28;45505;-75
2022/04/22 08:57:07;;;;;;;;;12.00;9.25;;;;;25.33;25.99;99350.06;5054899;28;45400;-76
2022/04/22 08:59:33;;;;;;;;;9.00;9.00;;;;;25.64;26.02;99352.34;5036178;28;45435;-76
2022/04/22 09:01:58;;;;;;;;;4.25;4.25;;;;;25.40;25.52;99370.03;5054654;28;45522;-76
2022/04/22 09:04:23;;;;;;;;;6.00;5.75;;;;;25.30;26.01;99348.50;5054045;28;45424;-75
2022/04/22 09:06:50;;;;;;;;;9.50;9.50;;;;;25.55;25.84;99351.41;5072213;27;45392;-76
2022/04/22 09:09:17;;;;;;;;;9.75;8.50;;;;;25.54;25.78;99352.44;5036258;28;47915;-76
2022/04/22 09:11:43;;;;;;;;;7.75;7.25;;;;;25.51;25.83;99359.00;5036385;28;45507;-76
2022/04/22 09:14:09;;;;;;;;;10.25;9.00;;;;;25.01;26.15;99357.66;5075344;28;45272;-76
2022/04/22 09:16:35;;;;;;;;;3.00;3.00;;;;;24.81;26.92;99351.53;5076531;28;45448;-77
2022/04/22 09:19:02;;;;;;;;;3.25;3.25;;;;;25.50;27.47;99351.88;5091760;27;46043;-74
2022/04/22 09:21:29;;;;;;;;;9.00;9.00;;;;;25.80;25.62;99343.50;5080179;27;45442;-76
2022/04/22 09:23:55;;;;;;;;;8.50;8.50;;;;;25.51;26.13;99353.59;5075906;27;45394;-83
2022/04/22 09:26:26;;;;;;;;;8.00;8.00;;;;;25.79;26.23;99345.34;5073930;27;45498;-77
2022/04/22 09:29:12;;;;;;;;;4.00;2.00;;;;;26.11;25.36;99343.88;5074875;27;45434;-77
2022/04/22 09:31:46;;;;;;;;;10.00;7.50;;;;;25.80;25.54;99338.09;5060425;27;45520;-77
2022/04/22 09:34:12;;;;;;;;;7.00;7.00;;;;;25.91;25.05;99337.81;5076083;27;45424;-77
2022/04/22 09:44:59;;;;;;;;;6.75;6.75;;;;;26.11;25.69;99343.03;5082716;27;45405;-78
2022/04/22 09:47:32;;;;;;;;;5.00;5.00;;;;;26.37;25.22;99349.28;5097504;27;45300;-78
2022/04/22 09:50:11;;;;;;;;;3.00;1.00;;;;;26.08;24.81;99349.63;5077367;27;45544;-79
2022/04/22 09:52:39;;;;;;;;;7.25;6.00;;;;;25.64;25.38;99336.09;5075003;27;45481;-78
2022/04/22 09:55:11;;;;;;;;;7.00;6.00;;;;;25.56;25.44;99345.00;5075411;27;45438;-80
2022/04/22 09:57:55;;;;;;;;;6.00;4.50;;;;;25.53;26.24;99337.22;5057001;28;45446;-77
2022/04/22 10:00:22;;;;;;;;;6.75;5.00;;;;;25.39;25.60;99332.34;5076638;27;46457;-77
2022/04/22 10:02:52;;;;;;;;;7.25;5.00;;;;;25.56;25.38;99326.06;5075468;27;45501;-78
2022/04/22 10:05:22;;;;;;;;;15.50;12.75;;;;;25.48;25.08;99337.69;5081388;27;46527;-77
2022/04/22 10:07:52;;;;;;;;;4.25;4.25;;;;;24.96;25.89;99348.31;5060314;28;45682;-77
2022/04/22 10:10:22;;;;;;;;;6.50;5.50;;;;;25.09;25.22;99315.50;5058926;27;46326;-77
2022/04/22 10:12:49;;;;;;;;;11.25;8.00;;;;;24.98;25.88;99319.31;5087799;27;45424;-77
2022/04/22 10:15:19;;;;;;;;;7.00;5.75;;;;;24.75;25.73;99319.75;5079288;28;45420;-79
2022/04/22 10:17:46;;;;;;;;;5.75;5.00;;;;;24.75;25.50;99324.28;5086785;27;45460;-79
2022/04/22 10:20:12;;;;;;;;;6.00;6.00;;;;;24.88;25.38;99319.34;5086781;27;45541;-77
2022/04/22 10:22:37;;;;;;;;;5.25;5.25;;;;;25.19;25.56;99316.28;5090094;27;45531;-78
2022/04/22 10:25:04;;;;;;;;;5.25;3.00;;;;;25.72;24.91;99306.41;5074807;27;45447;-78
2022/04/22 10:27:34;;;;;;;;;7.50;7.50;;;;;25.74;24.42;99314.38;5084745;27;45572;-78
2022/04/22 10:30:01;;;;;;;;;4.50;4.50;;;;;25.48;25.00;99299.00;5067238;28;46408;-80
2022/04/22 10:32:27;;;;;;;;;7.50;7.50;;;;;25.75;25.30;99303.41;5077702;27;45611;-77
2022/04/22 10:35:01;;;;;;;;;6.75;6.75;;;;;25.91;24.83;99310.75;5089638;27;45726;-78
2022/04/22 10:37:28;;;;;;;;;7.50;6.25;;;;;25.81;24.32;99315.41;5075126;27;45443;-77
2022/04/22 10:39:56;;;;;;;;;10.50;8.25;;;;;25.63;24.87;99312.75;5087542;27;45513;-78
2022/04/22 10:42:33;;;;;;;;;6.00;5.25;;;;;25.45;25.25;99310.13;5078147;28;45397;-79
2022/04/22 10:47:47;;;;;;;;;3.50;3.50;;;;;25.48;25.11;99299.00;5062893;28;45485;-78
2022/04/22 10:50:39;;;;;;;;;3.00;3.00;;;;;25.54;24.70;99290.25;5057981;28;48269;-78
2022/04/22 10:53:09;;;;;;;;;3.00;3.00;;;;;25.14;24.74;99303.25;5092144;27;45329;-79
2022/04/22 10:55:39;;;;;;;;;10.50;10.50;;;;;24.54;25.24;99311.03;5076568;28;45405;-78
2022/04/22 10:58:14;;;;;;;;;1.75;1.75;;;;;24.51;25.66;99297.84;5077126;28;45442;-77
2022/04/22 11:00:42;;;;;;;;;6.75;6.75;;;;;24.40;26.49;99293.47;5076484;27;45445;-78
2022/04/22 11:03:19;;;;;;;;;4.50;2.50;;;;;24.76;26.46;99293.56;5080364;28;45410;-81
2022/04/22 11:05:56;;;;;;;;;5.00;3.25;;;;;25.17;25.64;99277.75;5073286;27;45588;-80
2022/04/22 11:08:25;;;;;;;;;0.50;0.00;;;;;25.35;25.51;99277.75;5078562;28;45378;-80
2022/04/22 11:10:51;;;;;;;;;8.75;6.75;;;;;24.89;25.81;99288.63;5078038;28;46506;-81
2022/04/22 11:13:39;;;;;;;;;6.00;4.50;;;;;24.75;25.58;99281.94;5074837;27;45519;-81
2022/04/22 11:16:28;;;;;;;;;5.00;5.00;;;;;25.28;25.50;99284.75;5104155;27;45418;-81
2022/04/22 11:19:26;;;;;;;;;2.75;2.75;;;;;25.31;25.43;99288.03;5100369;27;45296;-80
2022/04/22 11:21:55;;;;;;;;;5.00;3.00;;;;;25.19;25.09;99286.56;5002042;28;45890;-81
2022/04/22 11:24:23;;;;;;;;;7.75;7.75;;;;;24.87;25.63;99277.16;4994994;28;45490;-82
2022/04/22 11:26:49;;;;;;;;;3.00;3.00;;;;;24.61;25.62;99279.72;4995170;28;45347;-80
2022/04/22 11:29:16;;;;;;;;;1.50;1.00;;;;;24.78;26.12;99278.03;4996029;28;45595;-80
2022/04/22 11:31:54;;;;;;;;;6.50;2.00;;;;;24.75;25.49;99271.13;4980182;28;45453;-81
2022/04/22 11:34:39;;;;;;;;;4.00;4.00;;;;;24.85;25.61;99270.19;4995061;28;45612;-81
2022/04/22 11:37:16;;;;;;;;;6.00;4.50;;;;;25.17;25.78;99280.44;5005270;28;45616;-81
2022/04/22 11:39:46;;;;;;;;;4.50;4.50;;;;;25.24;25.45;99272.56;5018851;28;45717;-81
2022/04/22 11:42:11;;;;;;;;;5.00;5.00;;;;;25.55;25.16;99267.56;5028516;28;46173;-81
2022/04/22 11:44:37;;;;;;;;;24.00;23.00;;;;;25.51;24.97;99267.06;4996686;28;45495;-81
2022/04/22 11:47:03;;;;;;;;;1.25;1.00;;;;;25.14;25.08;99270.81;4999376;28;45457;-80
2022/04/22 11:49:31;;;;;;;;;5.00;5.00;;;;;24.81;25.75;99270.50;5005189;28;45522;-80
2022/04/22 11:51:56;;;;;;;;;1.00;1.00;;;;;24.46;25.68;99263.16;5013194;28;45539;-79
2022/04/22 11:54:24;;;;;;;;;4.50;4.50;;;;;24.13;26.35;99257.41;4993444;28;45492;-77
2022/04/22 11:56:50;;;;;;;;;5.00;5.00;;;;;24.56;26.41;99261.25;5013979;28;45413;-78
2022/04/22 11:59:18;;;;;;;;;0.25;0.00;;;;;24.86;26.08;99256.53;5075852;27;45533;-78
2022/04/22 12:10:00;;;;;;;;;5.00;4.25;;;;;24.68;25.66;99256.53;5086380;27;45472;-80
2022/04/22 12:12:28;;;;;;;;;8.75;4.50;;;;;23.85;26.70;99251.97;5077037;28;46700;-82
2022/04/22 12:15:02;;;;;;;;;3.50;2.00;;;;;23.42;27.92;99250.66;5078240;28;45458;-80
2022/04/22 12:17:28;;;;;;;;;5.00;3.00;;;;;23.45;27.73;99239.59;5079335;28;45437;-81
2022/04/22 12:19:56;;;;;;;;;2.25;1.00;;;;;23.30;28.21;99241.03;5078714;28;45381;-81
2022/04/22 12:22:22;;;;;;;;;5.75;3.00;;;;;23.28;28.32;99251.97;5062410;28;46320;-80
2022/04/22 12:25:10;;;;;;;;;0.00;0.00;;;;;22.71;28.13;99252.69;5076037;28;45474;-78
2022/04/22 12:27:36;;;;;;;;;1.50;1.00;;;;;22.44;29.15;99239.88;5057104;28;45364;-77
2022/04/22 12:30:08;;;;;;;;;3.25;3.25;;;;;22.54;29.47;99245.28;5077046;27;45379;-80
2022/04/22 12:32:36;;;;;;;;;3.50;2.00;;;;;22.67;29.31;99245.03;5080097;27;45527;-79
2022/04/22 12:35:11;;;;;;;;;7.00;6.25;;;;;22.54;29.00;99248.81;5075737;28;45414;-76
2022/04/22 12:37:42;;;;;;;;;6.25;5.75;;;;;22.28;28.81;99242.22;5075508;27;45391;-77
2022/04/22 12:40:14;;;;;;;;;5.00;2.50;;;;;21.95;29.79;99222.72;5101884;27;45387;-78
2022/04/22 12:42:41;;;;;;;;;9.50;5.25;;;;;21.62;30.22;99243.50;5081625;27;46489;-77